createdAt,value
2023-03-26T00:01:47.223Z,7.78
2023-03-26T00:06:49.168Z,7.77
2023-03-26T00:11:50.910Z,7.75
2023-03-26T00:16:53.773Z,7.71
2023-03-26T00:21:57.865Z,7.77
2023-03-26T00:26:59.815Z,7.72
2023-03-26T00:32:01.859Z,7.64
2023-03-26T00:37:03.596Z,7.58
2023-03-26T00:42:07.300Z,7.65
2023-03-26T00:47:08.994Z,7.61
2023-03-26T00:52:13.469Z,7.65
2023-03-26T00:57:22.744Z,7.71
2023-03-26T01:02:33.424Z,7.75
2023-03-26T01:07:35.315Z,7.70
2023-03-26T01:12:37.058Z,7.71
2023-03-26T01:17:38.964Z,7.70
2023-03-26T01:22:49.451Z,7.69
2023-03-26T01:27:54.730Z,7.63
2023-03-26T01:33:14.371Z,7.64
2023-03-26T01:38:46.840Z,7.63
2023-03-26T01:43:58.451Z,7.67
2023-03-26T01:49:00.109Z,7.56
2023-03-26T01:54:05.337Z,7.55
2023-03-26T01:59:16.848Z,7.42
2023-03-26T02:04:26.619Z,7.44
2023-03-26T02:09:32.215Z,7.43
2023-03-26T02:14:34.385Z,7.45
2023-03-26T02:19:36.839Z,7.45
2023-03-26T02:24:38.815Z,7.55
2023-03-26T02:29:41.167Z,7.54
2023-03-26T02:34:43.245Z,7.57
2023-03-26T02:39:45.176Z,7.58
2023-03-26T02:44:46.845Z,7.64
2023-03-26T02:49:48.513Z,7.66
2023-03-26T02:54:50.336Z,7.67
2023-03-26T02:59:52.938Z,7.78
2023-03-26T03:05:01.437Z,7.94
2023-03-26T03:10:04.352Z,8.00
2023-03-26T03:15:06.394Z,8.07
2023-03-26T03:20:14.345Z,8.06
2023-03-26T03:25:17.620Z,8.01
2023-03-26T03:30:19.266Z,7.99
2023-03-26T03:35:21.285Z,8.10
2023-03-26T03:40:22.953Z,8.20
2023-03-26T03:45:24.579Z,8.30
2023-03-26T03:50:26.985Z,8.37
2023-03-26T03:55:28.690Z,8.42
2023-03-26T04:00:30.746Z,8.49
2023-03-26T04:05:33.216Z,8.50
2023-03-26T04:10:34.834Z,8.45
2023-03-26T04:15:36.620Z,8.44
2023-03-26T04:20:42.006Z,8.40
2023-03-26T04:25:48.570Z,8.36
2023-03-26T04:30:53.802Z,8.31
2023-03-26T04:35:57.004Z,8.16
2023-03-26T04:41:01.185Z,7.98
2023-03-26T04:46:04.651Z,7.95
2023-03-26T04:51:10.222Z,8.00
2023-03-26T04:56:37.090Z,7.92
2023-03-26T05:01:40.294Z,8.00
2023-03-26T05:06:42.166Z,7.99
2023-03-26T05:11:43.811Z,7.87
2023-03-26T05:16:47.878Z,7.92
2023-03-26T05:21:49.459Z,7.80
2023-03-26T05:26:51.767Z,7.88
2023-03-26T05:31:53.456Z,7.82
2023-03-26T05:36:55.068Z,7.86
2023-03-26T05:41:56.681Z,7.90
2023-03-26T05:46:58.312Z,7.93
2023-03-26T05:51:59.950Z,7.72
2023-03-26T05:57:01.613Z,7.69
2023-03-26T06:02:03.479Z,7.45
2023-03-26T06:07:05.105Z,7.25
2023-03-26T06:12:08.279Z,7.36
2023-03-26T06:17:10.715Z,7.46
2023-03-26T06:22:12.523Z,7.45
2023-03-26T06:27:14.199Z,7.74
2023-03-26T06:32:20.068Z,7.98
2023-03-26T06:37:22.357Z,8.10
2023-03-26T06:42:31.970Z,7.99
2023-03-26T06:47:45.771Z,7.88
2023-03-26T06:52:47.446Z,8.07
2023-03-26T06:57:50.950Z,8.20
2023-03-26T07:02:52.744Z,8.34
2023-03-26T07:07:54.575Z,8.40
2023-03-26T07:12:56.335Z,8.45
2023-03-26T07:17:58.070Z,8.47
2023-03-26T07:23:00.047Z,8.48
2023-03-26T07:28:22.198Z,8.33
2023-03-26T07:33:34.114Z,8.38
2023-03-26T07:39:09.580Z,8.37
2023-03-26T07:45:02.363Z,8.40
2023-03-26T07:50:07.730Z,8.57
2023-03-26T07:55:14.475Z,8.68
2023-03-26T08:00:29.199Z,8.69
2023-03-26T08:05:35.182Z,8.70
2023-03-26T08:10:43.224Z,8.64
2023-03-26T08:16:08.242Z,8.57
2023-03-26T08:21:31.895Z,8.55
2023-03-26T08:26:45.473Z,8.57
2023-03-26T08:31:49.497Z,8.53
2023-03-26T08:36:51.613Z,8.67
2023-03-26T08:42:21.111Z,8.57
2023-03-26T08:47:47.236Z,8.68
2023-03-26T08:53:26.192Z,8.63
2023-03-26T08:58:36.662Z,8.68
2023-03-26T09:03:41.465Z,8.74
2023-03-26T09:09:07.457Z,8.63
2023-03-26T09:14:39.468Z,8.71
2023-03-26T09:19:56.265Z,8.89
2023-03-26T09:25:23.956Z,8.90
2023-03-26T09:30:37.305Z,9.07
2023-03-26T09:35:54.259Z,9.46
2023-03-26T09:41:08.121Z,10.05
2023-03-26T09:46:28.707Z,10.15
2023-03-26T09:51:49.431Z,10.31
2023-03-26T09:56:57.818Z,10.37
2023-03-26T10:02:46.382Z,9.96
2023-03-26T10:08:07.237Z,10.06
2023-03-26T10:13:23.741Z,10.04
2023-03-26T10:18:33.916Z,10.42
2023-03-26T10:23:45.266Z,10.53
2023-03-26T10:28:55.717Z,10.89
2023-03-26T10:34:06.073Z,10.72
2023-03-26T10:39:36.851Z,10.68
2023-03-26T10:44:49.424Z,10.53
2023-03-26T10:50:23.077Z,10.36
2023-03-26T10:55:32.961Z,10.49
2023-03-26T11:00:43.430Z,10.79
2023-03-26T11:05:57.072Z,10.94
2023-03-26T11:11:11.146Z,10.83
2023-03-26T11:16:19.990Z,10.71
2023-03-26T11:21:38.962Z,10.43
2023-03-26T11:26:49.688Z,10.79
2023-03-26T11:32:03.667Z,11.04
2023-03-26T11:37:16.138Z,10.74
2023-03-26T11:42:21.813Z,10.64
2023-03-26T11:47:35.328Z,10.47
2023-03-26T11:52:37.469Z,10.44
2023-03-26T11:57:45.587Z,10.69
2023-03-26T12:02:48.815Z,11.08
2023-03-26T12:07:54.791Z,11.65
2023-03-26T12:12:59.631Z,12.17
2023-03-26T12:18:23.933Z,12.47
2023-03-26T12:23:57.904Z,12.44
2023-03-26T12:29:06.906Z,12.45
2023-03-26T12:34:18.455Z,12.74
2023-03-26T12:40:09.489Z,12.91
2023-03-26T12:49:59.461Z,12.95
2023-03-26T12:55:13.267Z,12.74
2023-03-26T13:00:21.450Z,12.98
2023-03-26T13:05:41.726Z,13.05
2023-03-26T13:11:21.032Z,13.14
2023-03-26T13:16:36.381Z,13.18
2023-03-26T13:21:40.810Z,12.95
2023-03-26T13:26:56.459Z,12.86
2023-03-26T13:32:07.202Z,12.92
2023-03-26T13:37:17.321Z,12.94
2023-03-26T13:42:37.665Z,12.75
2023-03-26T13:47:46.003Z,12.22
2023-03-26T13:53:12.478Z,11.86
2023-03-26T13:58:24.165Z,12.38
2023-03-26T14:03:51.555Z,12.32
2023-03-26T14:09:06.871Z,11.94
2023-03-26T14:14:17.804Z,11.13
2023-03-26T14:19:54.681Z,11.14
2023-03-26T14:25:20.375Z,11.25
2023-03-26T14:30:51.343Z,10.77
2023-03-26T14:36:18.002Z,10.08
2023-03-26T14:41:33.666Z,9.91
2023-03-26T14:46:56.903Z,9.75
2023-03-26T14:52:07.352Z,9.85
2023-03-26T14:57:09.879Z,9.63
2023-03-26T15:02:32.848Z,9.06
2023-03-26T15:07:52.700Z,8.98
2023-03-26T15:13:30.716Z,8.91
2023-03-26T15:18:57.222Z,8.74
2023-03-26T15:24:26.617Z,8.94
2023-03-26T15:29:55.894Z,9.20
2023-03-26T15:35:24.134Z,9.29
2023-03-26T15:40:25.700Z,9.57
2023-03-26T15:45:40.566Z,9.75
2023-03-26T15:51:46.551Z,9.63
2023-03-26T15:56:55.186Z,9.62
2023-03-26T16:02:44.640Z,9.59
2023-03-26T16:08:14.858Z,9.52
2023-03-26T16:13:25.321Z,9.52
2023-03-26T16:18:49.960Z,9.44
2023-03-26T16:24:12.625Z,9.52
2023-03-26T16:29:14.478Z,9.27
2023-03-26T16:34:26.260Z,9.26
2023-03-26T16:40:20.906Z,9.20
2023-03-26T16:45:37.110Z,9.15
2023-03-26T16:51:04.400Z,9.16
2023-03-26T16:56:15.891Z,8.95
2023-03-26T17:01:27.615Z,8.77
2023-03-26T17:07:09.046Z,8.75
2023-03-26T17:13:01.183Z,8.74
2023-03-26T17:18:36.910Z,8.66
2023-03-26T17:24:19.316Z,8.69
2023-03-26T17:30:04.000Z,8.68
2023-03-26T17:35:09.319Z,8.57
2023-03-26T17:40:46.571Z,8.39
2023-03-26T17:46:03.264Z,8.38
2023-03-26T17:51:30.860Z,8.28
2023-03-26T17:56:37.831Z,8.27
2023-03-26T18:01:42.240Z,8.31
2023-03-26T18:07:19.564Z,8.19
2023-03-26T18:12:45.337Z,8.25
2023-03-26T18:17:47.941Z,8.28
2023-03-26T18:22:51.691Z,8.28
2023-03-26T18:27:53.502Z,8.31
2023-03-26T18:33:13.210Z,8.21
2023-03-26T18:38:36.900Z,8.21
2023-03-26T18:43:44.215Z,8.17
2023-03-26T18:48:47.026Z,8.22
2023-03-26T18:53:58.439Z,8.17
2023-03-26T18:59:02.565Z,8.26
2023-03-26T19:04:07.078Z,8.23
2023-03-26T19:09:23.721Z,8.18
2023-03-26T19:14:28.040Z,8.06
2023-03-26T19:19:33.755Z,8.05
2023-03-26T19:24:37.124Z,7.97
2023-03-26T19:29:39.361Z,7.86
2023-03-26T19:34:41.224Z,7.71
2023-03-26T19:39:46.220Z,7.67
2023-03-26T19:44:48.151Z,7.72
2023-03-26T19:49:56.801Z,7.56
2023-03-26T19:55:02.888Z,7.56
2023-03-26T20:00:13.350Z,7.49
2023-03-26T20:05:26.500Z,7.46
2023-03-26T20:10:28.257Z,7.55
2023-03-26T20:15:34.255Z,7.49
2023-03-26T20:20:36.509Z,7.57
2023-03-26T20:25:46.500Z,7.39
2023-03-26T20:30:49.388Z,7.37
2023-03-26T20:35:55.474Z,7.40
2023-03-26T20:40:58.363Z,7.44
2023-03-26T20:46:00.713Z,7.31
2023-03-26T20:51:03.029Z,7.33
2023-03-26T20:56:05.066Z,7.14
2023-03-26T21:01:06.923Z,7.16
2023-03-26T21:06:15.284Z,7.21
2023-03-26T21:11:31.677Z,7.15
2023-03-26T21:16:33.966Z,7.11
2023-03-26T21:21:52.626Z,7.02
2023-03-26T21:27:14.467Z,6.93
2023-03-26T21:32:16.362Z,6.90
2023-03-26T21:37:19.190Z,6.87
2023-03-26T21:42:21.305Z,6.75
2023-03-26T21:47:23.180Z,6.65
2023-03-26T21:52:25.379Z,6.37
2023-03-26T21:57:44.454Z,6.19
2023-03-26T22:03:23.648Z,6.23
2023-03-26T22:08:38.941Z,6.04
2023-03-26T22:13:40.592Z,5.98
2023-03-26T22:18:43.795Z,6.15
2023-03-26T22:23:52.787Z,5.98
2023-03-26T22:28:54.626Z,6.00
2023-03-26T22:33:57.209Z,6.16
2023-03-26T22:38:58.897Z,6.21
2023-03-26T22:44:09.324Z,6.06
2023-03-26T22:49:20.975Z,6.08
2023-03-26T22:54:22.592Z,6.04
2023-03-26T22:59:24.311Z,6.00
2023-03-26T23:04:32.404Z,5.76
2023-03-26T23:09:34.893Z,5.71
2023-03-26T23:14:36.532Z,5.65
2023-03-26T23:19:39.246Z,5.69
2023-03-26T23:24:40.916Z,5.56
2023-03-26T23:29:42.600Z,5.39
2023-03-26T23:34:51.710Z,5.40
2023-03-26T23:39:54.067Z,5.02
2023-03-26T23:44:56.669Z,4.82
2023-03-26T23:49:58.328Z,4.57
2023-03-26T23:55:00.119Z,4.29
